Time;durP1;ratioP1;P1;durP2;ratioP2;P2;SDS_P1;SDS_P2;PMS_P1;PMS_P2;Temp;Humidity;BMP_temperature;BMP_pressure;BME280_temperature;BME280_humidity;BME280_pressure;Samples;Min_cycle;Max_cycle;Signal;HPM_P1;HPM_P2
2022/04/25 00:01:31;;;;;;;7.25;4.38;;;;;;;11.28;66.10;100761.44;5116286;28;20050;-52
2022/04/25 00:03:59;;;;;;;9.02;4.57;;;;;;;11.32;65.36;100761.69;5114199;28;20055;-50
2022/04/25 00:06:27;;;;;;;8.38;4.40;;;;;;;11.26;65.65;100757.34;5115752;28;20071;-49
2022/04/25 00:08:55;;;;;;;10.82;4.85;;;;;;;11.22;66.24;100772.63;5115593;28;20119;-49
2022/04/25 00:11:22;;;;;;;9.80;4.80;;;;;;;11.16;66.38;100765.50;5115252;28;20039;-48
2022/04/25 00:13:50;;;;;;;9.75;4.50;;;;;;;11.09;66.63;100763.09;5118464;27;20039;-48
2022/04/25 00:16:18;;;;;;;9.15;4.47;;;;;;;11.00;67.07;100767.44;5115991;28;20481;-49
2022/04/25 00:18:49;;;;;;;11.02;5.07;;;;;;;10.98;66.89;100773.16;5115961;28;20039;-49
2022/04/25 00:21:17;;;;;;;9.30;4.20;;;;;;;11.09;67.06;100771.25;5115692;28;20481;-49
2022/04/25 00:23:45;;;;;;;8.02;4.20;;;;;;;11.21;66.20;100768.25;5114783;27;20448;-49
2022/04/25 00:26:12;;;;;;;8.82;4.20;;;;;;;11.16;66.08;100765.50;5121342;27;20039;-49
2022/04/25 00:28:40;;;;;;;9.35;4.80;;;;;;;10.96;67.32;100777.25;5129729;27;20124;-49
2022/04/25 00:31:07;;;;;;;13.00;5.00;;;;;;;10.98;67.12;100773.16;5114644;28;20045;-50
2022/04/25 00:33:35;;;;;;;10.20;4.93;;;;;;;11.03;66.82;100770.44;5112284;28;20529;-50
2022/04/25 00:36:03;;;;;;;10.77;4.97;;;;;;;11.08;66.90;100773.16;5114224;28;20048;-53
2022/04/25 00:38:31;;;;;;;10.55;4.65;;;;;;;11.04;66.95;100773.97;5114942;28;20040;-46
2022/04/25 00:40:58;;;;;;;11.27;5.15;;;;;;;11.01;66.82;100779.97;5115076;28;20493;-46
2022/04/25 00:43:26;;;;;;;9.77;5.20;;;;;;;10.92;66.92;100779.72;5125838;27;20070;-44
2022/04/25 00:45:55;;;;;;;9.40;4.93;;;;;;;10.83;67.49;100771.25;5116050;27;20047;-45
2022/04/25 00:48:23;;;;;;;9.45;4.80;;;;;;;10.80;67.92;100768.22;5128017;27;20038;-51
2022/04/25 00:50:50;;;;;;;6.85;4.43;;;;;;;10.82;67.80;100771.50;5115129;28;20050;-52
2022/04/25 00:53:18;;;;;;;10.95;4.93;;;;;;;10.87;67.68;100774.22;5113648;28;20505;-50
2022/04/25 00:55:45;;;;;;;10.35;4.85;;;;;;;10.89;67.43;100780.22;5114871;28;20405;-50
2022/04/25 00:58:13;;;;;;;10.18;4.85;;;;;;;10.87;67.53;100775.06;5113705;28;20040;-47
2022/04/25 01:00:41;;;;;;;8.63;4.80;;;;;;;10.82;67.41;100769.63;5112561;28;20396;-49
2022/04/25 01:03:09;;;;;;;9.27;4.93;;;;;;;10.71;67.72;100767.16;5114086;28;20050;-48
2022/04/25 01:05:37;;;;;;;12.57;5.18;;;;;;;10.58;68.61;100768.47;5114759;28;20047;-47
2022/04/25 01:08:05;;;;;;;8.20;4.68;;;;;;;10.54;68.62;100772.84;5113406;28;20035;-51
2022/04/25 01:10:33;;;;;;;9.40;5.07;;;;;;;10.42;69.03;100773.06;5113575;28;20474;-48
2022/04/25 01:13:00;;;;;;;9.73;5.20;;;;;;;10.43;69.38;100775.50;5113946;28;20122;-52
2022/04/25 01:15:30;;;;;;;10.85;4.80;;;;;;;10.51;69.28;100770.63;5113917;28;20036;-52
2022/04/25 01:17:58;;;;;;;9.52;4.78;;;;;;;10.57;68.75;100775.00;5114899;28;20047;-52
2022/04/25 01:20:25;;;;;;;8.45;5.07;;;;;;;10.57;68.95;100775.00;5096037;28;20048;-51
2022/04/25 01:29:01;;;;;;;11.15;5.55;;;;;;;10.55;68.90;100772.53;5040023;28;20066;-54
2022/04/25 01:31:31;;;;;;;9.07;4.93;;;;;;;10.42;69.20;100770.34;5051662;28;20522;-52
2022/04/25 01:33:59;;;;;;;10.00;5.10;;;;;;;10.44;69.60;100773.63;5083785;28;20052;-53
2022/04/25 01:36:27;;;;;;;11.27;5.28;;;;;;;10.47;69.28;100769.53;5114599;28;20040;-54
2022/04/25 01:38:55;;;;;;;13.93;5.25;;;;;;;10.42;69.28;100770.34;5113753;28;20043;-53
2022/04/25 01:41:22;;;;;;;11.35;5.60;;;;;;;10.32;69.85;100770.28;5114402;28;20043;-53
2022/04/25 01:43:50;;;;;;;12.48;5.60;;;;;;;10.29;69.91;100768.94;5112812;28;20067;-51
2022/04/25 01:46:18;;;;;;;9.60;5.22;;;;;;;10.33;70.13;100769.22;5113715;28;20046;-49
2022/04/25 01:48:45;;;;;;;15.10;5.95;;;;;;;10.34;70.18;100776.28;5112806;28;20035;-48
2022/04/25 01:51:13;;;;;;;12.98;5.40;;;;;;;10.29;70.13;100776.28;5113900;28;20044;-50
2022/04/25 01:53:40;;;;;;;11.48;5.10;;;;;;;10.25;70.06;100778.72;5113070;28;20074;-51
2022/04/25 01:56:08;;;;;;;10.68;5.60;;;;;;;10.27;70.33;100775.69;5112773;28;20055;-52
2022/04/25 01:58:36;;;;;;;10.82;5.63;;;;;;;10.33;69.95;100775.50;5113096;28;20427;-52
2022/04/25 02:01:06;;;;;;;11.27;5.22;;;;;;;10.33;70.34;100775.50;5113412;28;20054;-50
2022/04/25 02:03:35;;;;;;;12.18;5.80;;;;;;;10.29;70.37;100773.56;5112314;28;20046;-51
2022/04/25 02:06:02;;;;;;;9.35;5.32;;;;;;;10.23;70.51;100776.25;5114124;28;20050;-52
2022/04/25 02:08:30;;;;;;;12.25;5.78;;;;;;;10.09;70.67;100771.56;5112431;28;20043;-50
2022/04/25 02:13:43;;;;;;;;;;;;;;;10.01;71.29;100773.69;5125699;27;20489;-52
2022/04/25 02:16:11;;;;;;;9.35;5.60;;;;;;;9.94;71.38;100772.31;5114117;28;19920;-53
2022/04/25 02:18:42;;;;;;;11.77;5.57;;;;;;;9.87;72.10;100769.81;5113879;28;20043;-52
2022/04/25 02:21:10;;;;;;;14.45;5.85;;;;;;;9.82;72.30;100770.63;5113381;28;20489;-45
2022/04/25 02:23:38;;;;;;;11.07;5.78;;;;;;;9.77;72.71;100767.06;5111149;28;20032;-45
2022/04/25 02:26:06;;;;;;;12.00;5.07;;;;;;;9.85;72.22;100760.28;5113378;28;20038;-45
2022/04/25 02:28:34;;;;;;;10.93;5.53;;;;;;;9.92;72.42;100769.03;5112967;28;20054;-46
2022/04/25 02:31:03;;;;;;;9.18;5.00;;;;;;;9.97;71.67;100769.06;5113690;28;20039;-50
2022/04/25 02:33:32;;;;;;;10.15;5.43;;;;;;;9.97;71.56;100760.88;5112731;28;20047;-50
2022/04/25 02:36:00;;;;;;;9.63;5.47;;;;;;;9.97;71.56;100766.34;5113338;28;20036;-49
2022/04/25 02:38:28;;;;;;;12.60;5.78;;;;;;;9.95;71.59;100768.50;5112665;28;20503;-51
2022/04/25 02:41:05;;;;;;;11.77;5.72;;;;;;;9.89;71.45;100775.00;5111773;28;20063;-50
2022/04/25 02:43:39;;;;;;;12.75;6.25;;;;;;;9.86;71.47;100767.34;5126844;28;20053;-51
2022/04/25 02:46:09;;;;;;;10.77;5.97;;;;;;;9.80;72.26;100761.88;5116173;28;20409;-52
2022/04/25 02:48:38;;;;;;;10.20;6.15;;;;;;;9.85;72.30;100763.00;5104857;27;20247;-49
2022/04/25 02:51:07;;;;;;;10.75;6.88;;;;;;;9.87;72.14;100763.56;5084336;28;20031;-50
2022/04/25 02:53:35;;;;;;;11.57;5.90;;;;;;;9.86;72.02;100764.63;5111813;28;20036;-50
2022/04/25 02:56:03;;;;;;;11.63;6.00;;;;;;;9.82;71.67;100765.16;5111662;28;20404;-51
2022/04/25 02:58:32;;;;;;;12.15;5.88;;;;;;;9.80;72.10;100759.16;5113062;28;20130;-49
2022/04/25 03:01:00;;;;;;;11.18;5.78;;;;;;;9.78;72.49;100760.53;5115757;28;20096;-52
2022/04/25 03:03:31;;;;;;;10.70;6.20;;;;;;;9.80;71.95;100756.44;5126190;28;20071;-50
2022/04/25 03:06:00;;;;;;;13.48;6.45;;;;;;;9.81;72.24;100760.81;5111878;28;20108;-52
2022/04/25 03:08:28;;;;;;;10.60;6.10;;;;;;;9.74;72.56;100756.69;5113198;28;20048;-50
2022/04/25 03:10:56;;;;;;;12.57;6.75;;;;;;;9.70;72.57;100761.84;5112870;28;20054;-49
2022/04/25 03:13:24;;;;;;;12.35;6.13;;;;;;;9.60;72.58;100759.06;5135414;27;20043;-52
2022/04/25 03:15:52;;;;;;;10.77;6.22;;;;;;;9.50;73.11;100750.81;5131670;27;20531;-48
2022/04/25 03:18:24;;;;;;;12.02;6.28;;;;;;;9.54;73.28;100754.66;5117091;28;20046;-52
2022/04/25 03:20:52;;;;;;;10.77;5.78;;;;;;;9.59;73.41;100765.56;5116958;28;20519;-52
2022/04/25 03:23:20;;;;;;;9.68;6.00;;;;;;;9.52;73.09;100768.53;5116024;28;20134;-50
2022/04/25 03:25:49;;;;;;;13.02;6.55;;;;;;;9.47;73.57;100765.78;5116486;28;20040;-50
2022/04/25 03:28:17;;;;;;;9.90;5.78;;;;;;;9.45;73.90;100769.84;5114317;28;20457;-50
2022/04/25 03:30:45;;;;;;;10.57;6.18;;;;;;;9.53;73.90;100769.38;5116815;28;20398;-50
2022/04/25 03:33:13;;;;;;;10.27;6.32;;;;;;;9.57;73.55;100767.75;5113073;28;20089;-53
2022/04/25 03:35:41;;;;;;;11.43;6.50;;;;;;;9.56;72.97;100763.38;5115683;28;20123;-50
2022/04/25 03:38:10;;;;;;;12.10;6.65;;;;;;;9.55;73.46;100762.59;5114299;28;20043;-48
2022/04/25 03:40:38;;;;;;;11.75;6.35;;;;;;;9.58;73.41;100772.13;5116281;28;20306;-48
2022/04/25 03:43:09;;;;;;;11.35;6.38;;;;;;;9.61;73.08;100768.84;5115479;28;20411;-52
2022/04/25 03:45:37;;;;;;;12.75;6.32;;;;;;;9.63;73.00;100768.59;5115720;28;20035;-50
2022/04/25 03:48:05;;;;;;;12.93;6.88;;;;;;;9.62;72.77;100767.78;5114967;28;20040;-48
2022/04/25 03:50:33;;;;;;;11.63;5.93;;;;;;;9.56;73.27;100771.56;5115022;28;20477;-49
2022/04/25 03:53:10;;;;;;;12.88;6.80;;;;;;;9.55;73.55;100780.81;5114307;28;20412;-49
2022/04/25 03:58:24;;;;;;;10.15;6.28;;;;;;;9.58;72.60;100780.28;5115755;28;20060;-48
2022/04/25 04:00:52;;;;;;;11.25;6.10;;;;;;;9.54;72.98;100784.59;5095727;28;20040;-52
2022/04/25 04:03:20;;;;;;;13.40;6.68;;;;;;;9.53;73.14;100782.97;5111741;28;20047;-50
2022/04/25 04:05:49;;;;;;;11.73;6.75;;;;;;;9.47;73.04;100784.81;5120431;27;20457;-53
2022/04/25 04:08:16;;;;;;;15.75;7.18;;;;;;;9.43;73.22;100785.59;5135343;27;20049;-47
2022/04/25 04:10:44;;;;;;;13.50;6.90;;;;;;;9.43;73.92;100793.75;5136697;27;20035;-52
2022/04/25 04:13:12;;;;;;;13.98;6.57;;;;;;;9.33;73.54;100789.06;5120534;27;20382;-53
2022/04/25 04:15:40;;;;;;;13.50;6.60;;;;;;;9.25;74.46;100793.09;5120756;27;20126;-49
2022/04/25 04:18:08;;;;;;;13.88;7.38;;;;;;;9.25;74.57;100795.00;5116032;28;20092;-47
2022/04/25 04:20:37;;;;;;;11.30;6.70;;;;;;;9.26;74.38;100794.75;5115649;28;20055;-50
2022/04/25 04:23:05;;;;;;;12.65;7.03;;;;;;;9.29;74.62;100804.28;5113271;28;20036;-50
2022/04/25 04:25:33;;;;;;;13.70;7.10;;;;;;;9.29;74.43;100799.66;5114622;28;20108;-52
2022/04/25 04:28:02;;;;;;;13.40;6.78;;;;;;;9.29;74.29;100805.09;5118911;27;20043;-49
2022/04/25 04:30:30;;;;;;;13.13;6.47;;;;;;;9.31;74.64;100811.09;5114618;28;20036;-50
2022/04/25 04:32:58;;;;;;;10.07;6.47;;;;;;;9.21;75.03;100807.44;5114453;28;20054;-48
2022/04/25 04:38:12;;;;;;;;;;;;;;;9.17;75.59;100812.59;5114119;28;20378;-47
2022/04/25 04:40:40;;;;;;;12.65;6.82;;;;;;;9.17;75.80;100813.41;5115174;28;20480;-49
2022/04/25 04:43:07;;;;;;;11.52;6.90;;;;;;;8.92;77.16;100808.59;5115529;27;20036;-46
2022/04/25 04:45:35;;;;;;;11.40;6.78;;;;;;;8.95;77.69;100810.78;5136184;27;20070;-46
2022/04/25 04:48:03;;;;;;;12.82;6.80;;;;;;;9.06;77.56;100810.88;5136159;27;20043;-44
2022/04/25 04:50:30;;;;;;;12.70;8.05;;;;;;;9.16;76.56;100822.66;5121784;27;20126;-45
2022/04/25 04:53:01;;;;;;;12.18;6.85;;;;;;;9.03;77.14;100823.06;5114106;27;20040;-47
2022/04/25 04:55:31;;;;;;;13.85;6.75;;;;;;;9.04;77.63;100821.97;5115016;28;20048;-45
2022/04/25 04:57:58;;;;;;;14.82;7.40;;;;;;;9.08;77.68;100827.72;5115419;28;20047;-45
2022/04/25 05:00:27;;;;;;;13.88;6.88;;;;;;;9.06;77.82;100830.69;5114699;28;20134;-46
2022/04/25 05:02:55;;;;;;;14.65;7.57;;;;;;;8.94;77.77;100833.56;5113577;28;20097;-46
2022/04/25 05:05:23;;;;;;;14.82;7.95;;;;;;;8.92;79.16;100837.63;5114462;28;20036;-47
2022/04/25 05:07:51;;;;;;;14.80;7.63;;;;;;;9.01;78.92;100840.72;5114794;28;20047;-45
2022/04/25 05:10:18;;;;;;;13.98;7.97;;;;;;;8.96;78.99;100844.19;5114787;28;20039;-47
2022/04/25 05:12:51;;;;;;;11.20;7.28;;;;;;;8.94;79.45;100841.72;5114586;28;20043;-49
2022/04/25 05:15:19;;;;;;;13.18;7.68;;;;;;;8.83;79.75;100845.44;5113154;28;20039;-53
2022/04/25 05:17:48;;;;;;;11.93;7.40;;;;;;;8.56;81.80;100861.69;5113236;28;20498;-47
2022/04/25 05:20:17;;;;;;;11.80;7.45;;;;;;;8.62;82.10;100854.44;5114689;28;20473;-53
2022/04/25 05:22:47;;;;;;;11.32;7.15;;;;;;;8.66;82.23;100858.25;5113041;28;20043;-53
2022/04/25 05:25:16;;;;;;;15.35;7.80;;;;;;;8.76;81.58;100858.41;5113010;28;20386;-53
2022/04/25 05:27:50;;;;;;;13.52;8.00;;;;;;;8.63;82.64;100866.94;5114485;28;20473;-52
2022/04/25 05:30:19;;;;;;;14.50;7.90;;;;;;;8.53;82.85;100857.59;5114356;28;20122;-53
2022/04/25 05:32:53;;;;;;;15.35;7.45;;;;;;;8.50;84.42;100868.97;5113346;28;20046;-50
2022/04/25 05:35:26;;;;;;;12.20;7.20;;;;;;;8.52;83.66;100861.38;5112221;28;20067;-53
2022/04/25 05:37:54;;;;;;;13.43;7.40;;;;;;;8.55;84.21;100865.50;5120624;27;20123;-50
2022/04/25 05:40:22;;;;;;;11.85;7.68;;;;;;;8.48;84.46;100871.09;5134755;27;20191;-51
2022/04/25 05:42:51;;;;;;;12.60;7.63;;;;;;;8.65;84.83;100872.94;5122380;27;20513;-52
2022/04/25 05:45:23;;;;;;;15.20;8.27;;;;;;;8.64;84.66;100879.44;5114099;28;20046;-52
2022/04/25 05:47:55;;;;;;;13.70;8.00;;;;;;;8.62;85.49;100881.59;5113109;28;20519;-52
2022/04/25 05:53:16;;;;;;;15.48;9.18;;;;;;;8.88;84.26;100888.97;5092281;28;20043;-49
2022/04/25 05:55:43;;;;;;;14.73;9.23;;;;;;;8.79;85.05;100887.78;5108434;28;20043;-47
2022/04/25 05:58:11;;;;;;;16.55;9.57;;;;;;;8.86;84.22;100893.81;5110626;28;20036;-50
2022/04/25 06:00:38;;;;;;;12.05;7.82;;;;;;;8.86;84.96;100884.84;5109463;28;20058;-51
2022/04/25 06:03:08;;;;;;;15.20;8.80;;;;;;;8.85;84.53;100888.63;5110924;28;20054;-50
2022/04/25 06:05:37;;;;;;;15.18;9.27;;;;;;;8.92;85.33;100887.38;5110790;28;20093;-51
2022/04/25 06:08:05;;;;;;;13.60;9.13;;;;;;;9.00;84.67;100888.00;5109891;28;20046;-46
2022/04/25 06:10:33;;;;;;;16.70;9.95;;;;;;;9.09;84.29;100883.72;5109924;28;20047;-46
2022/04/25 06:13:01;;;;;;;14.73;9.63;;;;;;;9.06;84.33;100892.41;5123073;27;20514;-49
2022/04/25 06:15:29;;;;;;;18.10;9.95;;;;;;;9.03;84.88;100895.63;5118001;27;20050;-49
2022/04/25 06:17:57;;;;;;;14.95;9.63;;;;;;;9.02;84.94;100904.84;5110563;28;20074;-48
2022/04/25 06:20:25;;;;;;;13.65;9.18;;;;;;;8.99;84.91;100903.47;5113575;28;20031;-46
2022/04/25 06:22:54;;;;;;;16.60;10.07;;;;;;;8.90;85.60;100900.41;5115797;28;20040;-47
2022/04/25 06:25:23;;;;;;;14.95;9.25;;;;;;;8.99;86.30;100902.66;5109938;28;20050;-52
2022/04/25 06:27:50;;;;;;;15.32;9.27;;;;;;;9.02;86.49;100902.97;5108960;28;20050;-51
2022/04/25 06:30:18;;;;;;;24.30;9.52;;;;;;;9.14;86.72;100906.38;5108043;28;20051;-51
2022/04/25 06:32:46;;;;;;;19.40;10.20;;;;;;;9.10;85.46;100905.22;5091518;28;20561;-51
2022/04/25 06:35:14;;;;;;;16.73;10.07;;;;;;;9.01;86.34;100911.38;5110289;28;20031;-52
2022/04/25 06:37:41;;;;;;;17.33;9.65;;;;;;;9.00;86.87;100912.47;5108868;28;20429;-54
2022/04/25 06:40:10;;;;;;;14.70;10.35;;;;;;;8.88;86.50;100910.69;5109765;28;20051;-53
2022/04/25 06:42:37;;;;;;;16.85;10.38;;;;;;;8.80;87.77;100911.13;5110165;28;20051;-55
2022/04/25 06:45:06;;;;;;;14.98;9.95;;;;;;;8.83;88.19;100916.06;5110219;28;20043;-56
2022/04/25 06:47:33;;;;;;;19.77;11.32;;;;;;;8.89;88.64;100923.19;5115764;28;20032;-54
2022/04/25 06:50:01;;;;;;;15.60;10.20;;;;;;;8.91;88.89;100915.63;5117580;28;20492;-51
2022/04/25 06:52:29;;;;;;;17.75;9.88;;;;;;;8.98;88.87;100922.75;5115608;28;20118;-56
2022/04/25 06:54:57;;;;;;;15.93;10.27;;;;;;;9.05;88.97;100926.09;5117322;28;20480;-53
2022/04/25 06:57:25;;;;;;;15.52;10.68;;;;;;;8.90;89.38;100922.13;5115890;28;20047;-53
2022/04/25 06:59:52;;;;;;;17.13;10.32;;;;;;;8.79;91.55;100925.81;5116656;28;20134;-56
2022/04/25 07:02:39;;;;;;;18.35;10.32;;;;;;;8.91;91.83;100926.47;5117172;28;20047;-55
2022/04/25 07:05:07;;;;;;;15.52;10.52;;;;;;;9.03;91.98;100931.78;5117284;28;20404;-55
2022/04/25 07:07:35;;;;;;;18.90;11.27;;;;;;;9.06;92.83;100927.72;5117045;27;20131;-53
2022/04/25 07:10:04;;;;;;;16.70;10.63;;;;;;;9.10;92.34;100926.97;5122304;27;20057;-53
2022/04/25 07:12:31;;;;;;;16.27;10.95;;;;;;;9.09;92.38;100927.22;5095501;28;20512;-52
2022/04/25 07:14:59;;;;;;;18.55;10.43;;;;;;;9.07;93.28;100937.53;5105559;28;20044;-54
2022/04/25 07:17:28;;;;;;;16.25;11.00;;;;;;;8.98;92.70;100933.63;5117301;28;20050;-52
2022/04/25 07:19:56;;;;;;;16.25;10.13;;;;;;;9.01;94.00;100935.84;5116898;28;20051;-53
2022/04/25 07:30:42;;;;;;;;;;;;;;;9.16;91.74;100941.44;5122054;27;20063;-52
2022/04/25 07:33:09;;;;;;;17.63;10.05;;;;;;;9.12;92.66;100943.03;5116387;28;20412;-52
2022/04/25 07:35:39;;;;;;;17.48;10.32;;;;;;;8.98;93.66;100947.22;5114585;28;20044;-53
2022/04/25 07:38:07;;;;;;;16.52;10.23;;;;;;;9.02;94.40;100946.47;5115304;28;20122;-52
2022/04/25 07:40:36;;;;;;;14.82;10.90;;;;;;;9.06;94.76;100946.75;5116126;28;20088;-51
2022/04/25 07:43:04;;;;;;;17.02;12.05;;;;;;;9.02;95.28;100951.06;5096264;28;20078;-51
2022/04/25 07:45:32;;;;;;;14.25;10.00;;;;;;;8.98;95.45;100950.75;5120897;27;20045;-52
2022/04/25 07:48:00;;;;;;;20.25;10.77;;;;;;;8.93;95.72;100954.22;5116472;27;20051;-51
2022/04/25 07:50:28;;;;;;;18.25;11.23;;;;;;;8.89;96.21;100958.53;5116008;28;20044;-50
2022/04/25 07:52:56;;;;;;;18.65;11.77;;;;;;;8.87;97.54;100960.66;5116372;28;20035;-52
2022/04/25 07:55:24;;;;;;;16.48;11.45;;;;;;;8.88;97.87;100967.75;5115365;28;20040;-51
2022/04/25 07:57:52;;;;;;;17.42;11.00;;;;;;;8.92;98.38;100966.19;5115444;28;20116;-53
2022/04/25 08:00:20;;;;;;;15.73;11.23;;;;;;;8.95;98.67;100970.28;5115947;28;20056;-53
2022/04/25 08:02:47;;;;;;;16.92;12.20;;;;;;;8.99;98.79;100968.69;5116050;28;20409;-57
2022/04/25 08:05:15;;;;;;;16.90;11.32;;;;;;;9.09;98.57;100973.41;5116113;28;20044;-49
2022/04/25 08:07:43;;;;;;;17.88;11.77;;;;;;;9.06;98.29;100973.94;5118159;27;20043;-52
2022/04/25 08:10:10;;;;;;;19.25;11.98;;;;;;;9.07;98.11;100981.03;5125372;27;20058;-50
2022/04/25 08:18:14;;;;;;;28.30;13.02;;;;;;;9.19;98.71;100981.72;5115803;28;20063;-52
2022/04/25 08:20:43;;;;;;;16.42;11.70;;;;;;;9.24;98.88;100980.94;5106759;28;20046;-53
2022/04/25 08:23:13;;;;;;;18.05;12.23;;;;;;;9.13;99.35;100982.72;5114921;28;20061;-54
2022/04/25 08:25:41;;;;;;;19.30;13.38;;;;;;;9.14;100.00;100992.53;5116366;28;20065;-53
2022/04/25 08:28:10;;;;;;;19.13;12.98;;;;;;;9.14;100.00;100993.34;5115953;28;20443;-49
2022/04/25 08:30:38;;;;;;;15.95;11.95;;;;;;;9.19;100.00;100995.31;5098002;28;20401;-50
2022/04/25 08:33:08;;;;;;;20.20;12.90;;;;;;;9.24;100.00;100998.06;5114507;28;20039;-55
2022/04/25 08:35:36;;;;;;;16.38;13.25;;;;;;;9.20;100.00;100996.13;5115338;28;20067;-55
2022/04/25 08:38:03;;;;;;;17.40;12.95;;;;;;;9.18;100.00;101001.81;5115659;28;20439;-54
2022/04/25 08:40:32;;;;;;;16.35;11.57;;;;;;;9.12;100.00;101005.56;5114158;28;20397;-53
2022/04/25 08:43:04;;;;;;;16.63;12.80;;;;;;;9.10;100.00;101007.69;5115216;28;20083;-55
2022/04/25 08:45:33;;;;;;;13.65;10.77;;;;;;;8.96;100.00;101010.78;5114096;28;20050;-53
2022/04/25 08:48:03;;;;;;;15.93;11.40;;;;;;;8.88;100.00;101013.13;5098123;28;20096;-54
2022/04/25 08:50:32;;;;;;;14.63;11.23;;;;;;;8.90;100.00;101019.97;5129377;27;20524;-53
2022/04/25 08:53:01;;;;;;;13.43;11.07;;;;;;;8.89;100.00;101017.47;5134459;27;20043;-52
2022/04/25 08:55:30;;;;;;;13.85;10.98;;;;;;;8.91;100.00;101021.59;5113549;27;20048;-52
2022/04/25 08:58:00;;;;;;;13.98;10.05;;;;;;;9.00;100.00;101016.56;5115092;28;20096;-51
2022/04/25 09:00:28;;;;;;;14.13;10.30;;;;;;;8.90;100.00;101028.13;5113217;28;20048;-54
2022/04/25 09:02:57;;;;;;;14.18;10.65;;;;;;;8.83;100.00;101027.47;5114194;28;20051;-55
2022/04/25 09:05:26;;;;;;;12.68;9.50;;;;;;;8.96;100.00;101034.44;5115052;28;20047;-54
2022/04/25 09:07:54;;;;;;;15.20;11.35;;;;;;;9.08;100.00;101032.41;5114419;28;20110;-53
2022/04/25 09:10:22;;;;;;;12.85;10.05;;;;;;;9.12;100.00;101038.16;5080290;28;20081;-54
2022/04/25 09:12:52;;;;;;;12.30;9.20;;;;;;;9.13;100.00;101042.53;5114450;28;20125;-53
2022/04/25 09:15:22;;;;;;;12.95;9.60;;;;;;;9.12;100.00;101044.44;5113874;28;20044;-52
2022/04/25 09:17:55;;;;;;;14.02;9.30;;;;;;;9.14;100.00;101053.16;5113806;28;20047;-52
2022/04/25 09:20:25;;;;;;;12.00;8.80;;;;;;;9.19;100.00;101044.25;5096524;28;20126;-53
2022/04/25 09:22:56;;;;;;;14.05;9.05;;;;;;;9.26;99.33;101041.31;5114959;28;20094;-51
2022/04/25 09:25:24;;;;;;;16.05;8.75;;;;;;;9.21;98.79;101047.50;5113094;28;20046;-52
2022/04/25 09:28:12;;;;;;;;;;;;;;;9.15;98.21;101056.69;5115221;28;20044;-53
2022/04/25 09:30:56;;;;;;;12.98;8.63;;;;;;;9.14;98.29;101041.47;5113156;28;20378;-53
2022/04/25 09:33:24;;;;;;;13.55;7.88;;;;;;;9.16;98.55;101053.72;5110340;28;20054;-55
2022/04/25 09:35:54;;;;;;;13.30;9.38;;;;;;;9.16;97.28;101055.59;5114283;28;20115;-54
2022/04/25 09:38:34;;;;;;;12.05;9.32;;;;;;;9.14;97.59;101055.06;5113870;28;20428;-55
2022/04/25 09:41:03;;;;;;;13.32;8.52;;;;;;;9.16;97.89;101066.47;5113331;28;20151;-53
2022/04/25 09:43:33;;;;;;;13.43;9.15;;;;;;;9.09;97.78;101060.41;5112612;28;20394;-52
2022/04/25 09:46:06;;;;;;;14.32;8.75;;;;;;;9.10;97.98;101062.06;5113140;28;20051;-53
2022/04/25 09:48:36;;;;;;;13.25;9.50;;;;;;;9.13;98.15;101066.97;5096484;28;20049;-54
2022/04/25 09:51:09;;;;;;;13.15;9.40;;;;;;;9.03;98.52;101073.13;5112657;28;20086;-52
2022/04/25 09:53:41;;;;;;;13.93;10.02;;;;;;;9.07;98.76;101073.44;5113810;28;20067;-53
2022/04/25 09:56:14;;;;;;;17.30;10.48;;;;;;;9.03;98.07;101073.13;5112647;28;20043;-52
2022/04/25 09:58:43;;;;;;;13.93;9.60;;;;;;;9.02;99.33;101071.47;5112844;28;20161;-54
2022/04/25 10:01:13;;;;;;;12.40;9.40;;;;;;;9.00;98.16;101076.34;5113183;28;20134;-53
2022/04/25 10:03:43;;;;;;;12.63;9.35;;;;;;;9.03;98.72;101072.28;5113966;28;20051;-53
2022/04/25 10:06:11;;;;;;;15.10;10.30;;;;;;;9.22;97.42;101072.81;5113980;28;20043;-55
2022/04/25 10:08:41;;;;;;;16.45;9.43;;;;;;;9.25;98.21;101083.19;5113590;28;20059;-53
2022/04/25 10:11:10;;;;;;;13.35;9.73;;;;;;;9.27;98.67;101084.56;5114076;27;20070;-54
2022/04/25 10:13:38;;;;;;;13.82;10.85;;;;;;;9.23;97.98;101083.41;5127158;27;20037;-55
2022/04/25 10:16:06;;;;;;;15.38;10.80;;;;;;;9.13;98.06;101086.81;5104113;28;20070;-57
2022/04/25 10:18:35;;;;;;;14.85;10.88;;;;;;;9.16;97.24;101088.22;5112520;28;20046;-53
2022/04/25 10:21:06;;;;;;;15.40;11.48;;;;;;;9.16;97.28;101089.06;5112084;28;20047;-53
2022/04/25 10:23:34;;;;;;;17.40;11.85;;;;;;;9.11;98.22;101093.59;5134067;28;20088;-54
2022/04/25 10:26:03;;;;;;;17.42;12.55;;;;;;;9.06;99.25;101094.34;5126050;27;20375;-54
2022/04/25 10:28:43;;;;;;;18.10;13.50;;;;;;;9.12;100.00;101100.69;5112419;28;20044;-54
2022/04/25 10:31:44;;;;;;;18.45;14.50;;;;;;;9.12;99.29;101103.41;5118029;28;20043;-54
2022/04/25 10:34:16;;;;;;;20.45;12.95;;;;;;;9.05;97.75;101097.34;5128686;28;20088;-53
2022/04/25 10:36:46;;;;;;;18.60;11.98;;;;;;;9.11;97.69;101107.19;5112678;28;20046;-55
2022/04/25 10:39:24;;;;;;;17.40;13.38;;;;;;;9.10;97.94;101102.84;5110238;28;20036;-53
2022/04/25 10:44:44;;;;;;;17.60;13.20;;;;;;;8.98;97.77;101113.81;5112201;28;20043;-53
2022/04/25 10:47:15;;;;;;;22.48;14.43;;;;;;;9.02;97.18;101119.56;5112233;28;20362;-52
2022/04/25 10:49:46;;;;;;;19.80;13.90;;;;;;;9.10;98.11;101113.72;5104841;28;20108;-53
2022/04/25 10:53:15;;;;;;;19.17;12.15;;;;;;;9.14;97.49;101112.16;5115620;27;20046;-53
2022/04/25 10:55:38;;;;;;;16.42;12.20;;;;;;;9.16;97.00;101116.25;5108026;28;20126;-54
2022/04/25 10:58:07;;;;;;;19.25;13.65;;;;;;;9.25;97.92;101123.97;4417607;28;10000219;-51
2022/04/25 11:03:08;;;;;;;21.17;13.02;;;;;;;9.18;99.12;101118.69;5109837;28;20031;-53
2022/04/25 11:05:44;;;;;;;17.77;13.50;;;;;;;9.26;99.74;101120.16;5110487;28;20104;-54
2022/04/25 11:08:18;;;;;;;26.85;17.83;;;;;;;9.31;99.31;101123.78;5110496;28;20051;-52
2022/04/25 11:10:47;;;;;;;19.40;13.40;;;;;;;9.26;97.48;101121.00;5115060;28;20039;-53
2022/04/25 11:13:22;;;;;;;18.65;13.52;;;;;;;9.22;98.03;101125.28;5110488;27;20378;-56
2022/04/25 11:15:51;;;;;;;19.08;13.90;;;;;;;9.25;97.76;101124.78;5109942;28;20043;-53
2022/04/25 11:18:30;;;;;;;27.27;17.58;;;;;;;9.22;98.54;101129.91;5110091;28;20048;-54
2022/04/25 11:21:11;;;;;;;17.63;13.32;;;;;;;9.21;97.85;101131.78;5104242;28;20043;-53
2022/04/25 11:23:49;;;;;;;18.05;13.45;;;;;;;9.30;98.13;101138.44;5119963;27;20469;-54
2022/04/25 11:26:23;;;;;;;19.88;14.98;;;;;;;9.41;97.87;101138.59;5108449;28;20047;-54
2022/04/25 11:31:28;;;;;;;19.13;13.85;;;;;;;9.51;96.33;101138.72;5108524;28;20473;-53
2022/04/25 11:34:00;;;;;;;21.40;14.80;;;;;;;9.46;97.13;101134.03;5111278;28;20039;-54
2022/04/25 11:36:31;;;;;;;19.67;14.13;;;;;;;9.47;97.17;101146.53;5112247;28;20050;-57
2022/04/25 11:41:45;;;;;;;;;;;;;;;9.48;96.51;101148.19;5112467;27;20036;-53
2022/04/25 11:44:13;;;;;;;18.70;13.55;;;;;;;9.45;95.31;101150.59;5112049;28;19923;-52
2022/04/25 11:46:41;;;;;;;17.15;13.30;;;;;;;9.39;94.81;101153.25;5129150;27;20051;-53
2022/04/25 11:49:09;;;;;;;18.35;11.77;;;;;;;9.45;94.84;101151.41;5113454;28;20121;-55
2022/04/25 11:51:38;;;;;;;21.17;13.05;;;;;;;9.54;95.11;101159.97;5112791;28;20054;-54
2022/04/25 11:54:10;;;;;;;18.00;13.27;;;;;;;9.54;95.30;101157.25;5111318;28;20043;-54
2022/04/25 11:56:40;;;;;;;19.60;14.25;;;;;;;9.51;94.82;101160.47;5112881;28;20039;-53
2022/04/25 11:59:17;;;;;;;20.65;14.75;;;;;;;9.37;94.87;101162.72;5113583;28;20055;-54
2022/04/25 12:01:49;;;;;;;19.95;13.40;;;;;;;9.34;94.48;101160.53;5112062;28;20130;-53
2022/04/25 12:04:34;;;;;;;19.48;13.52;;;;;;;9.39;95.15;101169.56;5112806;28;20511;-51
2022/04/25 12:07:04;;;;;;;16.45;13.07;;;;;;;9.45;94.68;101158.75;5112835;28;20088;-52
2022/04/25 12:18:19;;;;;;;20.10;12.68;;;;;;;9.75;94.96;101166.47;5111057;28;20043;-54
2022/04/25 12:20:50;;;;;;;;;;;;;;;9.85;94.63;101165.78;5122993;27;20047;-54
2022/04/25 12:23:35;;;;;;;16.58;12.57;;;;;;;9.86;92.77;101170.13;5113638;27;19920;-54